sensor_id;sensor_type;location;lat;lon;timestamp;P1;durP1;ratioP1;P2;durP2;ratioP2
30466;SDS011;17258;52.560;13.046;2023-12-20T00:05:51;3.23;;;2.93;;
30466;SDS011;17258;52.560;13.046;2023-12-20T00:15:52;3.23;;;3.03;;
30466;SDS011;17258;52.560;13.046;2023-12-20T00:25:53;2.38;;;2.28;;
30466;SDS011;17258;52.560;13.046;2023-12-20T00:35:53;2.70;;;2.50;;
30466;SDS011;17258;52.560;13.046;2023-12-20T00:45:56;8.88;;;2.50;;
30466;SDS011;17258;52.560;13.046;2023-12-20T00:56:02;3.22;;;2.60;;
30466;SDS011;17258;52.560;13.046;2023-12-20T01:06:03;2.72;;;2.53;;
30466;SDS011;17258;52.560;13.046;2023-12-20T01:16:05;2.08;;;1.98;;
30466;SDS011;17258;52.560;13.046;2023-12-20T01:26:06;2.15;;;1.95;;
30466;SDS011;17258;52.560;13.046;2023-12-20T01:36:06;2.10;;;2.00;;
30466;SDS011;17258;52.560;13.046;2023-12-20T01:46:07;1.77;;;1.67;;
30466;SDS011;17258;52.560;13.046;2023-12-20T01:56:08;1.25;;;1.20;;
30466;SDS011;17258;52.560;13.046;2023-12-20T02:06:09;2.30;;;1.95;;
30466;SDS011;17258;52.560;13.046;2023-12-20T02:16:11;1.85;;;1.75;;
30466;SDS011;17258;52.560;13.046;2023-12-20T02:26:12;1.60;;;1.50;;
30466;SDS011;17258;52.560;13.046;2023-12-20T02:36:13;1.90;;;1.80;;
30466;SDS011;17258;52.560;13.046;2023-12-20T02:46:14;2.63;;;2.30;;
30466;SDS011;17258;52.560;13.046;2023-12-20T02:56:16;1.80;;;1.70;;
30466;SDS011;17258;52.560;13.046;2023-12-20T03:06:17;5.20;;;1.57;;
30466;SDS011;17258;52.560;13.046;2023-12-20T03:16:19;1.33;;;1.23;;
30466;SDS011;17258;52.560;13.046;2023-12-20T03:26:19;2.10;;;1.40;;
30466;SDS011;17258;52.560;13.046;2023-12-20T03:36:20;3.10;;;1.10;;
30466;SDS011;17258;52.560;13.046;2023-12-20T03:46:21;4.40;;;1.20;;
30466;SDS011;17258;52.560;13.046;2023-12-20T03:56:21;2.10;;;1.27;;
30466;SDS011;17258;52.560;13.046;2023-12-20T04:06:22;1.63;;;1.10;;
30466;SDS011;17258;52.560;13.046;2023-12-20T04:16:23;2.27;;;1.40;;
30466;SDS011;17258;52.560;13.046;2023-12-20T04:26:23;2.87;;;1.27;;
30466;SDS011;17258;52.560;13.046;2023-12-20T04:36:24;3.00;;;1.37;;
30466;SDS011;17258;52.560;13.046;2023-12-20T04:46:26;2.00;;;1.38;;
30466;SDS011;17258;52.560;13.046;2023-12-20T04:56:27;4.57;;;1.70;;
30466;SDS011;17258;52.560;13.046;2023-12-20T05:06:28;2.35;;;1.33;;
30466;SDS011;17258;52.560;13.046;2023-12-20T05:16:28;3.87;;;1.23;;
30466;SDS011;17258;52.560;13.046;2023-12-20T05:26:29;1.37;;;1.00;;
30466;SDS011;17258;52.560;13.046;2023-12-20T05:36:30;1.90;;;1.15;;
30466;SDS011;17258;52.560;13.046;2023-12-20T05:46:31;3.23;;;1.40;;
30466;SDS011;17258;52.560;13.046;2023-12-20T05:56:31;3.17;;;1.27;;
30466;SDS011;17258;52.560;13.046;2023-12-20T06:06:32;1.87;;;1.27;;
30466;SDS011;17258;52.560;13.046;2023-12-20T06:16:33;2.43;;;1.67;;
30466;SDS011;17258;52.560;13.046;2023-12-20T06:26:33;2.15;;;1.30;;
30466;SDS011;17258;52.560;13.046;2023-12-20T06:36:34;1.83;;;1.73;;
30466;SDS011;17258;52.560;13.046;2023-12-20T06:46:35;1.80;;;1.40;;
30466;SDS011;17258;52.560;13.046;2023-12-20T06:56:36;2.95;;;1.40;;
30466;SDS011;17258;52.560;13.046;2023-12-20T07:06:36;4.20;;;1.63;;
30466;SDS011;17258;52.560;13.046;2023-12-20T07:16:37;8.93;;;1.60;;
30466;SDS011;17258;52.560;13.046;2023-12-20T07:26:38;6.93;;;2.17;;
30466;SDS011;17258;52.560;13.046;2023-12-20T07:36:39;3.00;;;1.63;;
30466;SDS011;17258;52.560;13.046;2023-12-20T07:46:40;4.17;;;1.40;;
30466;SDS011;17258;52.560;13.046;2023-12-20T07:56:41;8.27;;;2.15;;
30466;SDS011;17258;52.560;13.046;2023-12-20T08:06:41;5.18;;;1.83;;
30466;SDS011;17258;52.560;13.046;2023-12-20T08:16:42;7.07;;;1.80;;
30466;SDS011;17258;52.560;13.046;2023-12-20T08:26:43;4.63;;;1.98;;
30466;SDS011;17258;52.560;13.046;2023-12-20T08:36:43;9.70;;;6.10;;
30466;SDS011;17258;52.560;13.046;2023-12-20T08:46:44;7.65;;;4.65;;
30466;SDS011;17258;52.560;13.046;2023-12-20T08:56:45;16.67;;;15.47;;
30466;SDS011;17258;52.560;13.046;2023-12-20T09:06:46;13.98;;;12.73;;
30466;SDS011;17258;52.560;13.046;2023-12-20T09:16:46;16.23;;;15.00;;
30466;SDS011;17258;52.560;13.046;2023-12-20T09:26:47;4.57;;;4.10;;
30466;SDS011;17258;52.560;13.046;2023-12-20T09:36:48;8.17;;;7.37;;
30466;SDS011;17258;52.560;13.046;2023-12-20T09:46:49;9.10;;;3.70;;
30466;SDS011;17258;52.560;13.046;2023-12-20T09:56:50;9.20;;;3.17;;
30466;SDS011;17258;52.560;13.046;2023-12-20T10:06:51;4.85;;;2.85;;
30466;SDS011;17258;52.560;13.046;2023-12-20T10:16:52;2.63;;;2.40;;
30466;SDS011;17258;52.560;13.046;2023-12-20T10:27:03;8.20;;;3.40;;
30466;SDS011;17258;52.560;13.046;2023-12-20T10:37:05;4.00;;;3.70;;
30466;SDS011;17258;52.560;13.046;2023-12-20T10:47:06;7.85;;;3.30;;
30466;SDS011;17258;52.560;13.046;2023-12-20T10:57:07;19.65;;;17.75;;
30466;SDS011;17258;52.560;13.046;2023-12-20T11:07:13;23.67;;;21.60;;
30466;SDS011;17258;52.560;13.046;2023-12-20T11:17:24;13.77;;;12.68;;
30466;SDS011;17258;52.560;13.046;2023-12-20T11:27:27;5.15;;;4.03;;
30466;SDS011;17258;52.560;13.046;2023-12-20T11:37:28;16.30;;;14.90;;
30466;SDS011;17258;52.560;13.046;2023-12-20T11:47:35;15.63;;;14.43;;
30466;SDS011;17258;52.560;13.046;2023-12-20T11:57:36;7.05;;;6.45;;
30466;SDS011;17258;52.560;13.046;2023-12-20T12:07:37;6.03;;;4.28;;
30466;SDS011;17258;52.560;13.046;2023-12-20T12:17:37;6.17;;;3.43;;
30466;SDS011;17258;52.560;13.046;2023-12-20T12:27:41;8.95;;;2.20;;
30466;SDS011;17258;52.560;13.046;2023-12-20T12:37:43;3.90;;;2.22;;
30466;SDS011;17258;52.560;13.046;2023-12-20T12:47:44;3.60;;;2.33;;
30466;SDS011;17258;52.560;13.046;2023-12-20T12:57:45;3.83;;;2.50;;
30466;SDS011;17258;52.560;13.046;2023-12-20T13:07:46;4.00;;;2.03;;
30466;SDS011;17258;52.560;13.046;2023-12-20T13:17:47;7.18;;;3.78;;
30466;SDS011;17258;52.560;13.046;2023-12-20T13:27:49;2.03;;;1.77;;
30466;SDS011;17258;52.560;13.046;2023-12-20T13:37:50;8.20;;;6.10;;
30466;SDS011;17258;52.560;13.046;2023-12-20T13:47:50;12.80;;;5.53;;
30466;SDS011;17258;52.560;13.046;2023-12-20T13:57:51;12.38;;;8.23;;
30466;SDS011;17258;52.560;13.046;2023-12-20T14:07:52;4.70;;;2.88;;
30466;SDS011;17258;52.560;13.046;2023-12-20T14:17:52;3.20;;;1.87;;
30466;SDS011;17258;52.560;13.046;2023-12-20T14:27:56;8.10;;;4.72;;
30466;SDS011;17258;52.560;13.046;2023-12-20T14:37:57;3.30;;;2.38;;
30466;SDS011;17258;52.560;13.046;2023-12-20T14:47:57;9.23;;;4.53;;
30466;SDS011;17258;52.560;13.046;2023-12-20T14:57:58;4.40;;;2.30;;
30466;SDS011;17258;52.560;13.046;2023-12-20T15:08:00;3.72;;;2.00;;
30466;SDS011;17258;52.560;13.046;2023-12-20T15:18:04;1.27;;;0.93;;
30466;SDS011;17258;52.560;13.046;2023-12-20T15:28:05;3.65;;;2.20;;
30466;SDS011;17258;52.560;13.046;2023-12-20T15:38:05;7.00;;;2.58;;
30466;SDS011;17258;52.560;13.046;2023-12-20T15:48:06;4.57;;;2.50;;
30466;SDS011;17258;52.560;13.046;2023-12-20T15:58:08;2.20;;;1.75;;
30466;SDS011;17258;52.560;13.046;2023-12-20T16:08:08;4.17;;;1.73;;
30466;SDS011;17258;52.560;13.046;2023-12-20T16:18:09;5.20;;;2.03;;
30466;SDS011;17258;52.560;13.046;2023-12-20T16:28:11;1.55;;;1.40;;
30466;SDS011;17258;52.560;13.046;2023-12-20T16:38:11;1.95;;;1.40;;
30466;SDS011;17258;52.560;13.046;2023-12-20T16:48:12;1.37;;;1.27;;
30466;SDS011;17258;52.560;13.046;2023-12-20T16:58:13;3.13;;;1.55;;
30466;SDS011;17258;52.560;13.046;2023-12-20T17:08:14;10.25;;;2.05;;
30466;SDS011;17258;52.560;13.046;2023-12-20T17:18:15;3.13;;;1.60;;
30466;SDS011;17258;52.560;13.046;2023-12-20T17:28:16;4.43;;;2.10;;
30466;SDS011;17258;52.560;13.046;2023-12-20T17:38:16;4.57;;;2.47;;
30466;SDS011;17258;52.560;13.046;2023-12-20T17:48:17;8.93;;;2.45;;
30466;SDS011;17258;52.560;13.046;2023-12-20T17:58:18;10.87;;;1.93;;
30466;SDS011;17258;52.560;13.046;2023-12-20T18:08:18;7.18;;;2.22;;
30466;SDS011;17258;52.560;13.046;2023-12-20T18:18:19;5.40;;;3.20;;
30466;SDS011;17258;52.560;13.046;2023-12-20T18:28:20;7.03;;;3.17;;
30466;SDS011;17258;52.560;13.046;2023-12-20T18:38:20;7.82;;;2.35;;
30466;SDS011;17258;52.560;13.046;2023-12-20T18:48:28;5.13;;;2.03;;
30466;SDS011;17258;52.560;13.046;2023-12-20T18:58:29;4.97;;;2.20;;
30466;SDS011;17258;52.560;13.046;2023-12-20T19:08:31;11.23;;;3.13;;
30466;SDS011;17258;52.560;13.046;2023-12-20T19:18:31;6.77;;;3.63;;
30466;SDS011;17258;52.560;13.046;2023-12-20T19:28:32;3.95;;;2.03;;
30466;SDS011;17258;52.560;13.046;2023-12-20T19:38:34;5.55;;;2.30;;
30466;SDS011;17258;52.560;13.046;2023-12-20T19:48:35;3.70;;;1.75;;
30466;SDS011;17258;52.560;13.046;2023-12-20T19:58:36;4.97;;;2.50;;
30466;SDS011;17258;52.560;13.046;2023-12-20T20:08:37;5.07;;;2.60;;
30466;SDS011;17258;52.560;13.046;2023-12-20T20:18:37;3.88;;;2.30;;
30466;SDS011;17258;52.560;13.046;2023-12-20T20:28:38;9.52;;;5.15;;
30466;SDS011;17258;52.560;13.046;2023-12-20T20:38:39;6.03;;;3.57;;
30466;SDS011;17258;52.560;13.046;2023-12-20T20:48:39;7.38;;;2.50;;
30466;SDS011;17258;52.560;13.046;2023-12-20T20:58:40;2.70;;;2.38;;
30466;SDS011;17258;52.560;13.046;2023-12-20T21:08:41;5.30;;;2.53;;
30466;SDS011;17258;52.560;13.046;2023-12-20T21:18:41;3.17;;;2.37;;
30466;SDS011;17258;52.560;13.046;2023-12-20T21:28:44;3.53;;;2.45;;
30466;SDS011;17258;52.560;13.046;2023-12-20T21:38:44;3.57;;;2.00;;
30466;SDS011;17258;52.560;13.046;2023-12-20T21:48:45;2.78;;;1.88;;
30466;SDS011;17258;52.560;13.046;2023-12-20T21:58:46;1.70;;;1.60;;
30466;SDS011;17258;52.560;13.046;2023-12-20T22:08:46;3.03;;;2.07;;
30466;SDS011;17258;52.560;13.046;2023-12-20T22:18:47;6.43;;;4.55;;
30466;SDS011;17258;52.560;13.046;2023-12-20T22:28:48;2.80;;;1.60;;
30466;SDS011;17258;52.560;13.046;2023-12-20T22:38:48;3.20;;;1.23;;
30466;SDS011;17258;52.560;13.046;2023-12-20T22:48:49;1.92;;;1.30;;
30466;SDS011;17258;52.560;13.046;2023-12-20T22:58:50;0.87;;;0.80;;
30466;SDS011;17258;52.560;13.046;2023-12-20T23:08:51;1.40;;;1.17;;
30466;SDS011;17258;52.560;13.046;2023-12-20T23:18:51;0.85;;;0.85;;
30466;SDS011;17258;52.560;13.046;2023-12-20T23:28:52;1.00;;;0.90;;
30466;SDS011;17258;52.560;13.046;2023-12-20T23:38:53;2.27;;;1.20;;
30466;SDS011;17258;52.560;13.046;2023-12-20T23:48:53;2.97;;;1.43;;
30466;SDS011;17258;52.560;13.046;2023-12-20T23:58:54;2.40;;;1.63;;
